Cosco Nagoya — 3ESJ8 — position and weather

sailwx.info

Track history (hours):
 
Tides and Currents Weather Stations Pressure Air Temp Water Temp Dewpoint Dewpoint Depression Visibility Wind Speed Wind Dir Waves Ship Positions

Cosco Nagoya

Last reported at 2014-Oct-31 04:32 UTC. Time now 2014-Oct-31 05:01 UTC.
Position N 52°10' E 003°41'.

Length 260 m; draft 11.3 m.

Type: Ship (hazmat cat A). MMSI: 370320000.

Date/timePositionNaut miles runAvg speedWind from/ knotsBaromVisibWave heightAir tempDewpointWater temp
2014-Oct-31 04:32N 52°10' E 003°41'0 0.1
2014-Oct-31 03:32N 52°10' E 003°41'0 0.1
2014-Oct-31 02:32N 52°10' E 003°41'0 0.1
2014-Oct-31 01:32N 52°10' E 003°41'0 0.0
2014-Oct-31 00:32N 52°10' E 003°41'0 0.2
2014-Oct-30 23:32N 52°10' E 003°41'0 0.0
2014-Oct-30 22:32N 52°10' E 003°41'0 0.0
2014-Oct-30 21:32N 52°10' E 003°41'0 0.0
2014-Oct-30 20:32N 52°10' E 003°41'0 0.0
2014-Oct-30 19:32N 52°10' E 003°41'0 0.0
2014-Oct-30 18:32N 52°10' E 003°41'0 0.0
2014-Oct-30 17:33N 52°10' E 003°41'0 0.0
2014-Oct-30 16:33N 52°10' E 003°41'0 0.1
2014-Oct-30 15:33N 52°10' E 003°41'0 0.2
2014-Oct-30 14:33N 52°10' E 003°41'0 0.0
2014-Oct-30 13:33N 52°10' E 003°41'1 0.8
2014-Oct-30 12:33N 52°11' E 003°41'1211.8
2014-Oct-30 11:33N 52°22' E 003°46'1414.0
2014-Oct-30 10:33N 52°36' E 003°50'1615.7
2014-Oct-30 09:33N 52°51' E 003°56'1514.6
2014-Oct-30 08:33N 53°03' E 004°11'1514.7
2014-Oct-30 07:33N 53°14' E 004°27'1515.5
2014-Oct-30 06:34N 53°28' E 004°38'1716.7
2014-Oct-30 05:34N 53°35' E 005°03'1817.9
2014-Oct-30 04:34N 53°41' E 005°32'1817.5
2014-Oct-30 03:34N 53°46' E 005°60'1816.9
2014-Oct-30 02:29N 53°52' E 006°29'3216.0
2014-Oct-30 00:30N 53°58' E 007°22'1313.8
2014-Oct-29 23:33N 53°55' E 007°44'1212.1
2014-Oct-29 22:34N 53°51' E 008°02'1615.7
2014-Oct-29 21:34N 53°40' E 008°22'8 7.8
2014-Oct-29 20:33N 53°35' E 008°32'0 0.0
2014-Oct-29 19:32N 53°35' E 008°32'0 0.0
2014-Oct-29 18:32N 53°35' E 008°32'0 0.0
2014-Oct-29 17:32N 53°35' E 008°32'0 0.0
2014-Oct-29 16:32N 53°35' E 008°32'0 0.0
2014-Oct-29 15:32N 53°35' E 008°32'0 0.0
2014-Oct-29 14:32N 53°35' E 008°32'0 0.0
2014-Oct-29 13:32N 53°35' E 008°32'0 0.0
2014-Oct-29 12:29N 53°35' E 008°32'0 0.0
2014-Oct-29 11:32N 53°35' E 008°32'0 0.0
2014-Oct-29 10:32N 53°35' E 008°32'0 0.0
2014-Oct-29 09:32N 53°35' E 008°32'0 0.0
2014-Oct-29 08:32N 53°35' E 008°32'0 0.0
2014-Oct-29 07:32N 53°35' E 008°32'0 0.0
2014-Oct-29 06:32N 53°35' E 008°32'0 0.0
2014-Oct-29 05:32N 53°35' E 008°32'0 0.0
2014-Oct-29 04:32N 53°35' E 008°32'0 0.0
2014-Oct-29 03:32N 53°35' E 008°32'0 0.0
2014-Oct-29 02:32N 53°35' E 008°32'0 0.0
2014-Oct-29 01:32N 53°35' E 008°32'0 0.0
2014-Oct-29 00:32N 53°35' E 008°32'0 0.0
2014-Oct-28 23:32N 53°35' E 008°32'0 0.0
2014-Oct-28 22:32N 53°35' E 008°32'2 2.2
2014-Oct-28 21:33N 53°37' E 008°30'1616.5
2014-Oct-28 20:33N 53°48' E 008°09'1413.9
2014-Oct-28 19:33N 53°55' E 007°48'0 0.1
2014-Oct-28 18:33N 53°55' E 007°48'0 0.1
2014-Oct-28 17:30N 53°55' E 007°48'0 0.0
2014-Oct-28 16:33N 53°55' E 007°48'0 0.0
2014-Oct-28 15:33N 53°55' E 007°48'0 0.1
2014-Oct-28 14:33N 53°55' E 007°48'3 2.9
2014-Oct-28 13:33N 53°56' E 007°43'1111.3
2014-Oct-28 12:33N 53°53' E 007°25'1414.1
2014-Oct-28 11:34N 53°50' E 007°02'1414.4
2014-Oct-28 10:33N 53°47' E 006°38'1414.4
2014-Oct-28 09:33N 53°44' E 006°14'1514.5
2014-Oct-28 08:33N 53°39' E 005°51'1514.6
2014-Oct-28 07:34N 53°35' E 005°27'1515.4
2014-Oct-28 06:34N 53°30' E 005°03'1514.8
2014-Oct-28 05:34N 53°21' E 004°42'1615.6
2014-Oct-28 04:34N 53°08' E 004°29'1615.7
2014-Oct-28 03:33N 52°54' E 004°16'1615.5
2014-Oct-28 02:34N 52°41' E 004°03'1515.5
2014-Oct-28 01:34N 52°30' E 003°45'1514.9
2014-Oct-28 00:33N 52°19' E 003°29'1515.1
2014-Oct-27 23:33N 52°04' E 003°25'1514.9
2014-Oct-27 22:33N 51°50' E 003°18'1211.9
2014-Oct-27 21:33N 51°38' E 003°11'1514.6
2014-Oct-27 20:33N 51°24' E 003°04'1919.3
2014-Oct-27 19:33N 51°26' E 003°35'1313.4
2014-Oct-27 18:33N 51°22' E 003°55'1110.9
2014-Oct-27 17:33N 51°23' E 004°13'4 3.9
2014-Oct-27 16:34N 51°20' E 004°17'0 0.0
2014-Oct-27 15:33N 51°20' E 004°17'0 0.0
2014-Oct-27 14:33N 51°20' E 004°17'0 0.0
2014-Oct-27 13:33N 51°20' E 004°17'0 0.0
2014-Oct-27 12:34N 51°20' E 004°17'0 0.0
2014-Oct-27 11:34N 51°20' E 004°17'0 0.0
2014-Oct-27 10:34N 51°20' E 004°17'0 0.0
2014-Oct-27 09:33N 51°20' E 004°17'0 0.0
2014-Oct-27 08:33N 51°20' E 004°17'0 0.0
2014-Oct-27 07:33N 51°20' E 004°17'0 0.0
2014-Oct-27 06:33N 51°20' E 004°17'0 0.0
2014-Oct-27 05:33N 51°20' E 004°17'0 0.0
2014-Oct-27 04:33N 51°20' E 004°17'0 0.4
2014-Oct-27 03:34N 51°21' E 004°16'10 9.6
2014-Oct-27 02:34N 51°24' E 004°02'1212.1
2014-Oct-27 01:34N 51°24' E 003°43'1313.0
2014-Oct-27 00:34N 51°24' E 003°22'1616.4
2014-Oct-26 23:33N 51°22' E 002°56'1411.7
2014-Oct-26 22:20N 51°22' E 002°33'1012.3
2014-Oct-26 21:33N 51°19' E 002°18'1616.1
2014-Oct-26 20:34N 51°11' E 001°56'1515.3
2014-Oct-26 19:34N 51°01' E 001°37'1414.4
2014-Oct-26 18:33N 50°49' E 001°25'1515.5
2014-Oct-26 17:33N 50°36' E 001°11'1615.5
2014-Oct-26 16:33N 50°28' E 000°50'1716.3
2014-Oct-26 15:32N 50°24' E 000°25'6816.2
2014-Oct-26 11:22N 50°06' W 001°17'1516.2
2014-Oct-26 10:28N 50°02' W 001°39'1616.5
2014-Oct-26 09:32N 49°59' W 002°03'1717.3
2014-Oct-26 08:33N 49°55' W 002°28'1918.6
2014-Oct-26 07:33N 49°49' W 002°55'2020.0
2014-Oct-26 06:33N 49°46' W 003°26'  
Track history (hours):
 
Tides and Currents Weather Stations Pressure Air Temp Water Temp Dewpoint Dewpoint Depression Visibility Wind Speed Wind Dir Waves Ship Positions

Cosco Nagoya

Last reported at 2014-Oct-31 04:32 UTC. Time now 2014-Oct-31 05:01 UTC.
Position N 52°10' E 003°41'.

Length 260 m; draft 11.3 m.

Type: Ship (hazmat cat A). MMSI: 370320000.

Date/timePositionNaut miles runAvg speedWind from/ knotsBaromVisibWave heightAir tempDewpointWater temp
2014-Oct-31 04:32N 52°10' E 003°41'0 0.1
2014-Oct-31 03:32N 52°10' E 003°41'0 0.1
2014-Oct-31 02:32N 52°10' E 003°41'0 0.1
2014-Oct-31 01:32N 52°10' E 003°41'0 0.0
2014-Oct-31 00:32N 52°10' E 003°41'0 0.2
2014-Oct-30 23:32N 52°10' E 003°41'0 0.0
2014-Oct-30 22:32N 52°10' E 003°41'0 0.0
2014-Oct-30 21:32N 52°10' E 003°41'0 0.0
2014-Oct-30 20:32N 52°10' E 003°41'0 0.0
2014-Oct-30 19:32N 52°10' E 003°41'0 0.0
2014-Oct-30 18:32N 52°10' E 003°41'0 0.0
2014-Oct-30 17:33N 52°10' E 003°41'0 0.0
2014-Oct-30 16:33N 52°10' E 003°41'0 0.1
2014-Oct-30 15:33N 52°10' E 003°41'0 0.2
2014-Oct-30 14:33N 52°10' E 003°41'0 0.0
2014-Oct-30 13:33N 52°10' E 003°41'1 0.8
2014-Oct-30 12:33N 52°11' E 003°41'1211.8
2014-Oct-30 11:33N 52°22' E 003°46'1414.0
2014-Oct-30 10:33N 52°36' E 003°50'1615.7
2014-Oct-30 09:33N 52°51' E 003°56'1514.6
2014-Oct-30 08:33N 53°03' E 004°11'1514.7
2014-Oct-30 07:33N 53°14' E 004°27'1515.5
2014-Oct-30 06:34N 53°28' E 004°38'1716.7
2014-Oct-30 05:34N 53°35' E 005°03'1817.9
2014-Oct-30 04:34N 53°41' E 005°32'1817.5
2014-Oct-30 03:34N 53°46' E 005°60'1816.9
2014-Oct-30 02:29N 53°52' E 006°29'3216.0
2014-Oct-30 00:30N 53°58' E 007°22'1313.8
2014-Oct-29 23:33N 53°55' E 007°44'1212.1
2014-Oct-29 22:34N 53°51' E 008°02'1615.7
2014-Oct-29 21:34N 53°40' E 008°22'8 7.8
2014-Oct-29 20:33N 53°35' E 008°32'0 0.0
2014-Oct-29 19:32N 53°35' E 008°32'0 0.0
2014-Oct-29 18:32N 53°35' E 008°32'0 0.0
2014-Oct-29 17:32N 53°35' E 008°32'0 0.0
2014-Oct-29 16:32N 53°35' E 008°32'0 0.0
2014-Oct-29 15:32N 53°35' E 008°32'0 0.0
2014-Oct-29 14:32N 53°35' E 008°32'0 0.0
2014-Oct-29 13:32N 53°35' E 008°32'0 0.0
2014-Oct-29 12:29N 53°35' E 008°32'0 0.0
2014-Oct-29 11:32N 53°35' E 008°32'0 0.0
2014-Oct-29 10:32N 53°35' E 008°32'0 0.0
2014-Oct-29 09:32N 53°35' E 008°32'0 0.0
2014-Oct-29 08:32N 53°35' E 008°32'0 0.0
2014-Oct-29 07:32N 53°35' E 008°32'0 0.0
2014-Oct-29 06:32N 53°35' E 008°32'0 0.0
2014-Oct-29 05:32N 53°35' E 008°32'0 0.0
2014-Oct-29 04:32N 53°35' E 008°32'0 0.0
2014-Oct-29 03:32N 53°35' E 008°32'0 0.0
2014-Oct-29 02:32N 53°35' E 008°32'0 0.0
2014-Oct-29 01:32N 53°35' E 008°32'0 0.0
2014-Oct-29 00:32N 53°35' E 008°32'0 0.0
2014-Oct-28 23:32N 53°35' E 008°32'0 0.0
2014-Oct-28 22:32N 53°35' E 008°32'2 2.2
2014-Oct-28 21:33N 53°37' E 008°30'1616.5
2014-Oct-28 20:33N 53°48' E 008°09'1413.9
2014-Oct-28 19:33N 53°55' E 007°48'0 0.1
2014-Oct-28 18:33N 53°55' E 007°48'0 0.1
2014-Oct-28 17:30N 53°55' E 007°48'0 0.0
2014-Oct-28 16:33N 53°55' E 007°48'0 0.0
2014-Oct-28 15:33N 53°55' E 007°48'0 0.1
2014-Oct-28 14:33N 53°55' E 007°48'3 2.9
2014-Oct-28 13:33N 53°56' E 007°43'1111.3
2014-Oct-28 12:33N 53°53' E 007°25'1414.1
2014-Oct-28 11:34N 53°50' E 007°02'1414.4
2014-Oct-28 10:33N 53°47' E 006°38'1414.4
2014-Oct-28 09:33N 53°44' E 006°14'1514.5
2014-Oct-28 08:33N 53°39' E 005°51'1514.6
2014-Oct-28 07:34N 53°35' E 005°27'1515.4
2014-Oct-28 06:34N 53°30' E 005°03'1514.8
2014-Oct-28 05:34N 53°21' E 004°42'1615.6
2014-Oct-28 04:34N 53°08' E 004°29'1615.7
2014-Oct-28 03:33N 52°54' E 004°16'1615.5
2014-Oct-28 02:34N 52°41' E 004°03'1515.5
2014-Oct-28 01:34N 52°30' E 003°45'1514.9
2014-Oct-28 00:33N 52°19' E 003°29'1515.1
2014-Oct-27 23:33N 52°04' E 003°25'1514.9
2014-Oct-27 22:33N 51°50' E 003°18'1211.9
2014-Oct-27 21:33N 51°38' E 003°11'1514.6
2014-Oct-27 20:33N 51°24' E 003°04'1919.3
2014-Oct-27 19:33N 51°26' E 003°35'1313.4
2014-Oct-27 18:33N 51°22' E 003°55'1110.9
2014-Oct-27 17:33N 51°23' E 004°13'4 3.9
2014-Oct-27 16:34N 51°20' E 004°17'0 0.0
2014-Oct-27 15:33N 51°20' E 004°17'0 0.0
2014-Oct-27 14:33N 51°20' E 004°17'0 0.0
2014-Oct-27 13:33N 51°20' E 004°17'0 0.0
2014-Oct-27 12:34N 51°20' E 004°17'0 0.0
2014-Oct-27 11:34N 51°20' E 004°17'0 0.0
2014-Oct-27 10:34N 51°20' E 004°17'0 0.0
2014-Oct-27 09:33N 51°20' E 004°17'0 0.0
2014-Oct-27 08:33N 51°20' E 004°17'0 0.0
2014-Oct-27 07:33N 51°20' E 004°17'0 0.0
2014-Oct-27 06:33N 51°20' E 004°17'0 0.0
2014-Oct-27 05:33N 51°20' E 004°17'0 0.0
2014-Oct-27 04:33N 51°20' E 004°17'0 0.4
2014-Oct-27 03:34N 51°21' E 004°16'10 9.6
2014-Oct-27 02:34N 51°24' E 004°02'1212.1
2014-Oct-27 01:34N 51°24' E 003°43'1313.0
2014-Oct-27 00:34N 51°24' E 003°22'1616.4
2014-Oct-26 23:33N 51°22' E 002°56'1411.7
2014-Oct-26 22:20N 51°22' E 002°33'1012.3
2014-Oct-26 21:33N 51°19' E 002°18'1616.1
2014-Oct-26 20:34N 51°11' E 001°56'1515.3
2014-Oct-26 19:34N 51°01' E 001°37'1414.4
2014-Oct-26 18:33N 50°49' E 001°25'1515.5
2014-Oct-26 17:33N 50°36' E 001°11'1615.5
2014-Oct-26 16:33N 50°28' E 000°50'1716.3
2014-Oct-26 15:32N 50°24' E 000°25'6816.2
2014-Oct-26 11:22N 50°06' W 001°17'1516.2
2014-Oct-26 10:28N 50°02' W 001°39'1616.5
2014-Oct-26 09:32N 49°59' W 002°03'1717.3
2014-Oct-26 08:33N 49°55' W 002°28'1918.6
2014-Oct-26 07:33N 49°49' W 002°55'2020.0
2014-Oct-26 06:33N 49°46' W 003°26'  

Dump ship's entire track history